sensor_id;sensor_type;location;lat;lon;timestamp;P1;durP1;ratioP1;P2;durP2;ratioP2
61112;SDS011;47184;57.998;56.184;2023-11-21T13:57:18;280.70;;;177.27;;
61112;SDS011;47184;57.998;56.184;2023-11-21T13:59:46;282.42;;;175.88;;
61112;SDS011;47184;57.998;56.184;2023-11-21T14:02:12;314.55;;;200.45;;
61112;SDS011;47184;57.998;56.184;2023-11-21T14:04:43;195.60;;;118.93;;
61112;SDS011;47184;57.998;56.184;2023-11-21T14:07:20;177.15;;;105.68;;
61112;SDS011;47184;57.998;56.184;2023-11-21T14:10:02;158.52;;;95.20;;
61112;SDS011;47184;57.998;56.184;2023-11-21T14:12:29;142.20;;;84.60;;
61112;SDS011;47184;57.998;56.184;2023-11-21T14:14:59;100.75;;;60.72;;
61112;SDS011;47184;57.998;56.184;2023-11-21T14:17:26;72.57;;;41.97;;
61112;SDS011;47184;57.998;56.184;2023-11-21T14:19:52;63.90;;;37.70;;
61112;SDS011;47184;57.998;56.184;2023-11-21T14:22:21;89.72;;;50.38;;
61112;SDS011;47184;57.998;56.184;2023-11-21T14:24:47;95.57;;;56.60;;
61112;SDS011;47184;57.998;56.184;2023-11-21T14:27:15;92.05;;;55.67;;
61112;SDS011;47184;57.998;56.184;2023-11-21T14:29:41;102.32;;;61.13;;
61112;SDS011;47184;57.998;56.184;2023-11-21T14:32:10;94.95;;;56.97;;
61112;SDS011;47184;57.998;56.184;2023-11-21T14:34:36;101.65;;;62.60;;
61112;SDS011;47184;57.998;56.184;2023-11-21T14:37:08;123.07;;;70.57;;
61112;SDS011;47184;57.998;56.184;2023-11-21T14:39:39;155.00;;;87.07;;
61112;SDS011;47184;57.998;56.184;2023-11-21T14:42:10;139.48;;;82.75;;
61112;SDS011;47184;57.998;56.184;2023-11-21T14:44:36;141.32;;;82.55;;
61112;SDS011;47184;57.998;56.184;2023-11-21T14:47:07;147.52;;;85.18;;
61112;SDS011;47184;57.998;56.184;2023-11-21T14:49:43;161.98;;;93.43;;
61112;SDS011;47184;57.998;56.184;2023-11-21T14:52:21;157.55;;;88.45;;
61112;SDS011;47184;57.998;56.184;2023-11-21T14:55:01;158.32;;;91.53;;
61112;SDS011;47184;57.998;56.184;2023-11-21T14:57:50;173.77;;;101.25;;
61112;SDS011;47184;57.998;56.184;2023-11-21T15:00:20;202.77;;;120.30;;
61112;SDS011;47184;57.998;56.184;2023-11-21T15:03:02;204.55;;;117.97;;
61112;SDS011;47184;57.998;56.184;2023-11-21T15:05:32;193.50;;;114.13;;
61112;SDS011;47184;57.998;56.184;2023-11-21T15:08:03;160.85;;;100.55;;
61112;SDS011;47184;57.998;56.184;2023-11-21T15:10:55;171.73;;;108.10;;
61112;SDS011;47184;57.998;56.184;2023-11-21T15:13:22;205.45;;;120.53;;
61112;SDS011;47184;57.998;56.184;2023-11-21T15:15:55;172.00;;;108.85;;
61112;SDS011;47184;57.998;56.184;2023-11-21T15:18:33;167.50;;;107.13;;
61112;SDS011;47184;57.998;56.184;2023-11-21T15:21:02;173.27;;;111.10;;
61112;SDS011;47184;57.998;56.184;2023-11-21T15:23:31;169.65;;;107.30;;
61112;SDS011;47184;57.998;56.184;2023-11-21T15:26:01;178.55;;;112.47;;
61112;SDS011;47184;57.998;56.184;2023-11-21T15:28:29;177.38;;;116.32;;
61112;SDS011;47184;57.998;56.184;2023-11-21T15:30:56;200.00;;;124.82;;
61112;SDS011;47184;57.998;56.184;2023-11-21T15:33:23;224.73;;;142.65;;
61112;SDS011;47184;57.998;56.184;2023-11-21T15:35:49;237.27;;;146.77;;
61112;SDS011;47184;57.998;56.184;2023-11-21T15:38:15;232.65;;;142.57;;
61112;SDS011;47184;57.998;56.184;2023-11-21T15:40:41;253.02;;;146.38;;
61112;SDS011;47184;57.998;56.184;2023-11-21T15:43:08;240.50;;;146.40;;
61112;SDS011;47184;57.998;56.184;2023-11-21T15:45:34;233.75;;;138.95;;
61112;SDS011;47184;57.998;56.184;2023-11-21T15:48:00;222.95;;;136.05;;
61112;SDS011;47184;57.998;56.184;2023-11-21T15:50:27;223.98;;;135.13;;
61112;SDS011;47184;57.998;56.184;2023-11-21T15:52:54;229.18;;;135.15;;
61112;SDS011;47184;57.998;56.184;2023-11-21T15:55:20;225.32;;;136.05;;
61112;SDS011;47184;57.998;56.184;2023-11-21T15:57:46;216.35;;;131.43;;
61112;SDS011;47184;57.998;56.184;2023-11-21T16:00:13;207.27;;;128.90;;
61112;SDS011;47184;57.998;56.184;2023-11-21T16:02:50;194.90;;;115.50;;
61112;SDS011;47184;57.998;56.184;2023-11-21T16:05:24;232.90;;;137.63;;
61112;SDS011;47184;57.998;56.184;2023-11-21T16:07:51;225.68;;;132.60;;
61112;SDS011;47184;57.998;56.184;2023-11-21T16:10:17;213.80;;;128.75;;
61112;SDS011;47184;57.998;56.184;2023-11-21T16:12:45;200.88;;;125.72;;
61112;SDS011;47184;57.998;56.184;2023-11-21T16:15:15;205.30;;;124.05;;
61112;SDS011;47184;57.998;56.184;2023-11-21T16:17:43;201.20;;;122.05;;
61112;SDS011;47184;57.998;56.184;2023-11-21T16:20:11;201.00;;;126.53;;
61112;SDS011;47184;57.998;56.184;2023-11-21T16:22:41;202.68;;;124.97;;
61112;SDS011;47184;57.998;56.184;2023-11-21T16:25:07;197.07;;;122.82;;
61112;SDS011;47184;57.998;56.184;2023-11-21T16:27:38;199.07;;;125.05;;
61112;SDS011;47184;57.998;56.184;2023-11-21T16:30:04;198.32;;;128.15;;
61112;SDS011;47184;57.998;56.184;2023-11-21T16:32:32;217.95;;;135.13;;
61112;SDS011;47184;57.998;56.184;2023-11-21T16:35:00;236.30;;;146.57;;
61112;SDS011;47184;57.998;56.184;2023-11-21T16:37:29;237.02;;;145.55;;
61112;SDS011;47184;57.998;56.184;2023-11-21T16:39:55;230.15;;;144.95;;
61112;SDS011;47184;57.998;56.184;2023-11-21T16:42:21;219.27;;;136.93;;
61112;SDS011;47184;57.998;56.184;2023-11-21T16:44:50;212.15;;;133.48;;
61112;SDS011;47184;57.998;56.184;2023-11-21T16:47:18;209.30;;;128.73;;
61112;SDS011;47184;57.998;56.184;2023-11-21T16:49:44;209.45;;;126.93;;
61112;SDS011;47184;57.998;56.184;2023-11-21T16:52:10;201.95;;;127.15;;
61112;SDS011;47184;57.998;56.184;2023-11-21T16:54:36;208.13;;;126.65;;
61112;SDS011;47184;57.998;56.184;2023-11-21T16:57:03;199.63;;;124.03;;
61112;SDS011;47184;57.998;56.184;2023-11-21T16:59:38;211.27;;;130.15;;
61112;SDS011;47184;57.998;56.184;2023-11-21T17:02:35;202.82;;;125.85;;
61112;SDS011;47184;57.998;56.184;2023-11-21T17:05:01;192.85;;;121.13;;
61112;SDS011;47184;57.998;56.184;2023-11-21T17:07:29;192.85;;;121.00;;
61112;SDS011;47184;57.998;56.184;2023-11-21T17:09:55;184.27;;;115.18;;
61112;SDS011;47184;57.998;56.184;2023-11-21T17:12:24;205.80;;;126.40;;
61112;SDS011;47184;57.998;56.184;2023-11-21T17:14:53;191.43;;;119.75;;
61112;SDS011;47184;57.998;56.184;2023-11-21T17:17:19;191.85;;;117.20;;
61112;SDS011;47184;57.998;56.184;2023-11-21T17:19:45;191.07;;;118.43;;
61112;SDS011;47184;57.998;56.184;2023-11-21T17:22:11;181.55;;;114.18;;
61112;SDS011;47184;57.998;56.184;2023-11-21T17:24:38;201.50;;;122.25;;
61112;SDS011;47184;57.998;56.184;2023-11-21T17:27:04;188.38;;;116.13;;
61112;SDS011;47184;57.998;56.184;2023-11-21T17:29:31;175.68;;;112.40;;
61112;SDS011;47184;57.998;56.184;2023-11-21T17:31:57;176.27;;;112.90;;
61112;SDS011;47184;57.998;56.184;2023-11-21T17:34:23;183.00;;;114.70;;
61112;SDS011;47184;57.998;56.184;2023-11-21T17:36:49;184.70;;;117.38;;
61112;SDS011;47184;57.998;56.184;2023-11-21T17:39:15;182.63;;;114.00;;
61112;SDS011;47184;57.998;56.184;2023-11-21T17:41:43;180.85;;;113.85;;
61112;SDS011;47184;57.998;56.184;2023-11-21T17:44:09;188.45;;;117.30;;
61112;SDS011;47184;57.998;56.184;2023-11-21T17:46:35;181.98;;;114.20;;
61112;SDS011;47184;57.998;56.184;2023-11-21T17:49:01;190.65;;;119.88;;
61112;SDS011;47184;57.998;56.184;2023-11-21T17:51:27;189.07;;;115.40;;
61112;SDS011;47184;57.998;56.184;2023-11-21T17:53:53;187.70;;;117.22;;
61112;SDS011;47184;57.998;56.184;2023-11-21T17:56:26;197.45;;;120.82;;
61112;SDS011;47184;57.998;56.184;2023-11-21T17:58:52;195.80;;;123.70;;
61112;SDS011;47184;57.998;56.184;2023-11-21T18:01:19;202.27;;;124.47;;
61112;SDS011;47184;57.998;56.184;2023-11-21T18:03:46;204.05;;;124.25;;
61112;SDS011;47184;57.998;56.184;2023-11-21T18:06:12;204.23;;;125.60;;
61112;SDS011;47184;57.998;56.184;2023-11-21T18:08:40;211.60;;;130.82;;
61112;SDS011;47184;57.998;56.184;2023-11-21T18:11:10;218.23;;;133.73;;
61112;SDS011;47184;57.998;56.184;2023-11-21T18:13:36;231.45;;;134.32;;
61112;SDS011;47184;57.998;56.184;2023-11-21T18:16:02;205.05;;;129.45;;
61112;SDS011;47184;57.998;56.184;2023-11-21T18:18:29;230.55;;;138.45;;
61112;SDS011;47184;57.998;56.184;2023-11-21T18:20:55;245.32;;;143.73;;
61112;SDS011;47184;57.998;56.184;2023-11-21T18:23:21;242.65;;;145.82;;
61112;SDS011;47184;57.998;56.184;2023-11-21T18:25:47;247.68;;;148.48;;
61112;SDS011;47184;57.998;56.184;2023-11-21T18:28:13;270.13;;;150.55;;
61112;SDS011;47184;57.998;56.184;2023-11-21T18:30:39;269.15;;;155.13;;
61112;SDS011;47184;57.998;56.184;2023-11-21T18:33:06;276.65;;;150.73;;
61112;SDS011;47184;57.998;56.184;2023-11-21T18:35:32;265.48;;;148.38;;
61112;SDS011;47184;57.998;56.184;2023-11-21T18:37:58;277.50;;;154.45;;
61112;SDS011;47184;57.998;56.184;2023-11-21T18:40:24;274.77;;;151.07;;
61112;SDS011;47184;57.998;56.184;2023-11-21T18:42:50;278.60;;;150.45;;
61112;SDS011;47184;57.998;56.184;2023-11-21T18:45:16;281.35;;;152.07;;
61112;SDS011;47184;57.998;56.184;2023-11-21T18:47:42;279.20;;;155.68;;
61112;SDS011;47184;57.998;56.184;2023-11-21T18:50:08;291.33;;;156.40;;
61112;SDS011;47184;57.998;56.184;2023-11-21T18:52:36;279.95;;;153.00;;
61112;SDS011;47184;57.998;56.184;2023-11-21T18:55:02;285.00;;;159.02;;
61112;SDS011;47184;57.998;56.184;2023-11-21T18:57:28;272.42;;;150.13;;
61112;SDS011;47184;57.998;56.184;2023-11-21T18:59:56;282.95;;;151.60;;
61112;SDS011;47184;57.998;56.184;2023-11-21T19:02:22;276.70;;;148.77;;
61112;SDS011;47184;57.998;56.184;2023-11-21T19:04:48;300.67;;;156.27;;
61112;SDS011;47184;57.998;56.184;2023-11-21T19:07:14;286.55;;;151.25;;
61112;SDS011;47184;57.998;56.184;2023-11-21T19:09:40;291.20;;;155.18;;
61112;SDS011;47184;57.998;56.184;2023-11-21T19:12:06;279.90;;;153.95;;
61112;SDS011;47184;57.998;56.184;2023-11-21T19:14:33;271.45;;;146.65;;
61112;SDS011;47184;57.998;56.184;2023-11-21T19:16:59;253.88;;;137.07;;
61112;SDS011;47184;57.998;56.184;2023-11-21T19:19:26;211.57;;;120.25;;
61112;SDS011;47184;57.998;56.184;2023-11-21T19:21:52;203.40;;;113.10;;
61112;SDS011;47184;57.998;56.184;2023-11-21T19:24:19;192.93;;;112.03;;
61112;SDS011;47184;57.998;56.184;2023-11-21T19:26:45;179.57;;;109.28;;
61112;SDS011;47184;57.998;56.184;2023-11-21T19:29:10;178.88;;;108.50;;
61112;SDS011;47184;57.998;56.184;2023-11-21T19:31:37;179.57;;;100.90;;
61112;SDS011;47184;57.998;56.184;2023-11-21T19:34:03;181.52;;;103.40;;
61112;SDS011;47184;57.998;56.184;2023-11-21T19:36:30;171.55;;;100.18;;
61112;SDS011;47184;57.998;56.184;2023-11-21T19:38:56;163.10;;;98.53;;
61112;SDS011;47184;57.998;56.184;2023-11-21T19:41:23;165.73;;;98.70;;
61112;SDS011;47184;57.998;56.184;2023-11-21T19:43:49;161.57;;;98.05;;
61112;SDS011;47184;57.998;56.184;2023-11-21T19:46:16;155.73;;;94.78;;
61112;SDS011;47184;57.998;56.184;2023-11-21T19:48:42;152.82;;;93.28;;
61112;SDS011;47184;57.998;56.184;2023-11-21T19:51:08;158.40;;;95.30;;
61112;SDS011;47184;57.998;56.184;2023-11-21T19:53:37;154.05;;;89.40;;
61112;SDS011;47184;57.998;56.184;2023-11-21T19:56:04;144.85;;;89.55;;
61112;SDS011;47184;57.998;56.184;2023-11-21T19:58:38;143.07;;;88.53;;
61112;SDS011;47184;57.998;56.184;2023-11-21T20:01:04;143.50;;;86.72;;
61112;SDS011;47184;57.998;56.184;2023-11-21T20:03:31;145.98;;;88.78;;
61112;SDS011;47184;57.998;56.184;2023-11-21T20:06:01;142.95;;;88.15;;
61112;SDS011;47184;57.998;56.184;2023-11-21T20:08:28;141.63;;;84.65;;
61112;SDS011;47184;57.998;56.184;2023-11-21T20:10:56;143.77;;;86.05;;
61112;SDS011;47184;57.998;56.184;2023-11-21T20:13:23;138.40;;;83.93;;
61112;SDS011;47184;57.998;56.184;2023-11-21T20:15:50;134.05;;;81.97;;
61112;SDS011;47184;57.998;56.184;2023-11-21T20:18:16;138.05;;;84.15;;
61112;SDS011;47184;57.998;56.184;2023-11-21T20:20:41;127.55;;;80.70;;
61112;SDS011;47184;57.998;56.184;2023-11-21T20:23:08;131.68;;;82.43;;
61112;SDS011;47184;57.998;56.184;2023-11-21T20:25:34;121.35;;;78.78;;
61112;SDS011;47184;57.998;56.184;2023-11-21T20:28:01;129.70;;;80.07;;
61112;SDS011;47184;57.998;56.184;2023-11-21T20:30:28;123.88;;;76.93;;
61112;SDS011;47184;57.998;56.184;2023-11-21T20:32:57;127.15;;;79.68;;
61112;SDS011;47184;57.998;56.184;2023-11-21T20:35:24;125.10;;;76.97;;
61112;SDS011;47184;57.998;56.184;2023-11-21T20:37:50;118.80;;;73.38;;
61112;SDS011;47184;57.998;56.184;2023-11-21T20:40:16;127.20;;;77.93;;
